createdAt,value
2022-09-15T00:00:32.655Z,18.18
2022-09-15T00:02:59.570Z,18.15
2022-09-15T00:05:26.597Z,18.09
2022-09-15T00:07:53.442Z,18.19
2022-09-15T00:10:20.344Z,18.29
2022-09-15T00:12:48.675Z,18.37
2022-09-15T00:15:17.707Z,18.44
2022-09-15T00:17:49.823Z,18.48
2022-09-15T00:20:18.621Z,18.47
2022-09-15T00:22:45.609Z,18.39
2022-09-15T00:25:15.361Z,18.19
2022-09-15T00:27:42.312Z,18.08
2022-09-15T00:30:09.589Z,17.84
2022-09-15T00:32:36.440Z,17.78
2022-09-15T00:35:05.172Z,17.86
2022-09-15T00:37:33.594Z,17.85
2022-09-15T00:40:00.486Z,17.86
2022-09-15T00:42:27.378Z,17.96
2022-09-15T00:45:00.844Z,17.91
2022-09-15T00:47:38.859Z,17.81
2022-09-15T00:50:11.191Z,17.57
2022-09-15T00:52:47.952Z,17.36
2022-09-15T00:55:17.435Z,17.39
2022-09-15T00:58:04.249Z,17.10
2022-09-15T01:00:31.163Z,16.85
2022-09-15T01:02:59.142Z,16.75
2022-09-15T01:05:32.988Z,16.67
2022-09-15T01:08:21.997Z,16.82
2022-09-15T01:10:49.277Z,17.02
2022-09-15T01:13:16.461Z,17.12
2022-09-15T01:16:21.636Z,17.03
2022-09-15T01:18:54.357Z,17.05
2022-09-15T01:21:27.092Z,17.02
2022-09-15T01:24:06.099Z,17.00
2022-09-15T01:26:56.535Z,16.87
2022-09-15T01:29:42.115Z,17.01
2022-09-15T01:32:35.452Z,16.74
2022-09-15T01:35:17.358Z,16.94
2022-09-15T01:37:50.290Z,16.83
2022-09-15T01:40:18.986Z,16.84
2022-09-15T01:42:48.416Z,16.75
2022-09-15T01:45:23.636Z,16.70
2022-09-15T01:47:54.547Z,16.56
2022-09-15T01:50:28.766Z,16.51
2022-09-15T01:53:02.382Z,16.60
2022-09-15T01:55:52.165Z,16.58
2022-09-15T01:58:19.695Z,16.64
2022-09-15T02:00:53.600Z,16.70
2022-09-15T02:03:27.527Z,16.67
2022-09-15T02:06:02.822Z,16.76
2022-09-15T02:08:47.635Z,16.82
2022-09-15T02:11:21.026Z,16.93
2022-09-15T02:14:17.733Z,16.99
2022-09-15T02:16:49.453Z,16.88
2022-09-15T02:19:31.682Z,16.86
2022-09-15T02:22:10.670Z,16.77
2022-09-15T02:24:45.832Z,16.83
2022-09-15T02:27:18.406Z,16.97
2022-09-15T02:29:48.895Z,16.87
2022-09-15T02:32:18.868Z,16.77
2022-09-15T02:34:50.524Z,16.69
2022-09-15T02:37:21.340Z,16.79
2022-09-15T02:39:53.576Z,16.79
2022-09-15T02:42:28.623Z,16.66
2022-09-15T02:44:56.052Z,16.67
2022-09-15T02:47:24.092Z,16.74
2022-09-15T02:49:51.312Z,16.72
2022-09-15T02:52:18.208Z,16.76
2022-09-15T02:54:45.105Z,16.83
2022-09-15T02:57:14.044Z,16.87
2022-09-15T03:00:02.957Z,17.05
2022-09-15T03:02:34.625Z,17.02
2022-09-15T03:05:02.548Z,17.08
2022-09-15T03:07:30.470Z,17.11
2022-09-15T03:09:57.767Z,17.20
2022-09-15T03:12:25.614Z,17.36
2022-09-15T03:14:52.546Z,17.40
2022-09-15T03:17:19.553Z,17.34
2022-09-15T03:19:46.439Z,17.29
2022-09-15T03:22:13.370Z,17.22
2022-09-15T03:24:42.317Z,17.08
2022-09-15T03:27:09.418Z,16.98
2022-09-15T03:29:36.279Z,16.82
2022-09-15T03:32:03.155Z,16.65
2022-09-15T03:34:30.041Z,16.59
2022-09-15T03:36:56.890Z,16.52
2022-09-15T03:39:24.363Z,16.16
2022-09-15T03:41:51.258Z,15.83
2022-09-15T03:44:19.285Z,15.72
2022-09-15T03:46:46.709Z,15.67
2022-09-15T03:49:15.113Z,15.58
2022-09-15T03:51:42.188Z,15.69
2022-09-15T03:54:09.206Z,15.86
2022-09-15T03:56:37.642Z,16.06
2022-09-15T03:59:05.847Z,16.02
2022-09-15T04:01:32.846Z,16.14
2022-09-15T04:04:00.484Z,16.09
2022-09-15T04:06:27.555Z,16.38
2022-09-15T04:08:55.221Z,16.58
2022-09-15T04:11:22.915Z,16.80
2022-09-15T04:13:50.502Z,16.91
2022-09-15T04:16:19.828Z,17.04
2022-09-15T04:18:46.955Z,17.17
2022-09-15T04:21:16.407Z,17.22
2022-09-15T04:23:44.310Z,17.51
2022-09-15T04:26:36.082Z,17.64
2022-09-15T04:29:05.255Z,17.81
2022-09-15T04:31:33.222Z,17.83
2022-09-15T04:34:01.280Z,18.05
2022-09-15T04:36:29.767Z,17.99
2022-09-15T04:38:57.235Z,17.92
2022-09-15T04:41:25.872Z,17.89
2022-09-15T04:43:53.303Z,17.85
2022-09-15T04:46:20.849Z,17.88
2022-09-15T04:48:49.403Z,17.93
2022-09-15T04:51:19.673Z,17.55
2022-09-15T04:53:48.988Z,17.42
2022-09-15T04:56:20.675Z,17.50
2022-09-15T04:58:50.459Z,17.64
2022-09-15T05:01:21.311Z,17.45
2022-09-15T05:03:48.919Z,17.41
2022-09-15T05:06:20.156Z,17.27
2022-09-15T05:08:51.502Z,17.70
2022-09-15T05:11:19.427Z,17.81
2022-09-15T05:13:47.075Z,17.86
2022-09-15T05:16:17.072Z,17.97
2022-09-15T05:18:45.544Z,18.02
2022-09-15T05:21:21.074Z,18.09
2022-09-15T05:23:49.450Z,18.45
2022-09-15T05:26:19.826Z,18.53
2022-09-15T05:28:46.749Z,18.79
2022-09-15T05:31:20.422Z,19.03
2022-09-15T05:33:53.895Z,19.21
2022-09-15T05:36:25.955Z,19.49
2022-09-15T05:38:54.297Z,19.74
2022-09-15T05:41:23.005Z,19.91
2022-09-15T05:43:51.043Z,19.96
2022-09-15T05:46:20.661Z,20.17
2022-09-15T05:48:48.981Z,20.36
2022-09-15T05:51:15.986Z,20.30
2022-09-15T05:53:42.919Z,20.55
2022-09-15T05:56:12.164Z,20.74
2022-09-15T05:58:44.163Z,20.91
2022-09-15T06:01:23.140Z,20.91
2022-09-15T06:03:50.734Z,20.89
2022-09-15T06:06:18.440Z,20.82
2022-09-15T06:08:52.815Z,20.93
2022-09-15T06:11:25.090Z,20.96
2022-09-15T06:13:52.003Z,21.04
2022-09-15T06:16:21.790Z,21.20
2022-09-15T06:18:51.478Z,21.08
2022-09-15T06:21:26.250Z,20.99
2022-09-15T06:24:00.984Z,21.21
2022-09-15T06:26:29.485Z,21.27
2022-09-15T06:28:59.325Z,21.44
2022-09-15T06:31:28.384Z,21.54
2022-09-15T06:33:57.010Z,21.69
2022-09-15T06:36:27.283Z,21.67
2022-09-15T06:38:54.811Z,21.71
2022-09-15T06:41:21.862Z,21.78
2022-09-15T06:43:49.460Z,21.89
2022-09-15T06:46:20.876Z,21.95
2022-09-15T06:48:48.752Z,21.95
2022-09-15T06:51:36.196Z,21.94
2022-09-15T06:54:04.388Z,22.02
2022-09-15T06:56:34.563Z,22.36
2022-09-15T06:59:04.968Z,22.65
2022-09-15T07:01:32.469Z,22.83
2022-09-15T07:04:02.880Z,22.91
2022-09-15T07:06:32.186Z,23.16
2022-09-15T07:08:59.603Z,23.31
2022-09-15T07:11:27.238Z,23.33
2022-09-15T07:13:54.149Z,23.44
2022-09-15T07:16:22.072Z,23.59
2022-09-15T07:18:50.045Z,23.74
2022-09-15T07:21:20.317Z,23.90
2022-09-15T07:23:49.305Z,24.12
2022-09-15T07:26:29.976Z,24.20
2022-09-15T07:28:59.791Z,24.15
2022-09-15T07:31:30.237Z,24.34
2022-09-15T07:33:59.361Z,24.50
2022-09-15T07:36:26.749Z,24.71
2022-09-15T07:38:53.812Z,24.80
2022-09-15T07:41:25.045Z,24.91
2022-09-15T07:43:54.097Z,24.99
2022-09-15T07:46:22.597Z,25.04
2022-09-15T07:48:52.090Z,25.35
2022-09-15T07:51:19.832Z,25.51
2022-09-15T07:53:48.402Z,25.68
2022-09-15T07:56:20.032Z,25.80
2022-09-15T07:58:48.217Z,25.95
2022-09-15T08:01:16.533Z,26.05
2022-09-15T08:03:51.411Z,26.12
2022-09-15T08:09:05.872Z,26.42
2022-09-15T08:11:32.816Z,26.50
2022-09-15T08:14:02.860Z,26.61
2022-09-15T08:16:30.744Z,26.77
2022-09-15T08:18:57.762Z,26.77
2022-09-15T08:21:42.196Z,26.80
2022-09-15T08:24:10.638Z,26.77
2022-09-15T08:26:38.930Z,26.95
2022-09-15T08:29:10.372Z,27.07
2022-09-15T08:31:40.113Z,27.22
2022-09-15T08:34:07.131Z,27.31
2022-09-15T08:36:34.376Z,27.40
2022-09-15T08:39:02.569Z,27.49
2022-09-15T08:41:33.935Z,27.62
2022-09-15T08:44:22.816Z,27.82
2022-09-15T08:47:20.856Z,27.87
2022-09-15T08:50:32.130Z,27.84
2022-09-15T08:53:07.848Z,28.02
2022-09-15T08:55:43.664Z,28.10
2022-09-15T08:58:36.273Z,28.16
2022-09-15T09:01:12.195Z,28.24
2022-09-15T09:04:13.720Z,28.35
2022-09-15T09:07:10.720Z,28.39
2022-09-15T09:09:57.775Z,28.50
2022-09-15T09:13:02.129Z,28.62
2022-09-15T09:15:36.374Z,28.72
2022-09-15T09:18:12.682Z,28.82
2022-09-15T09:20:52.974Z,28.79
2022-09-15T09:23:26.318Z,28.93
2022-09-15T09:25:53.477Z,29.02
2022-09-15T09:28:30.835Z,29.11
2022-09-15T09:31:04.183Z,29.09
2022-09-15T09:33:51.520Z,29.11
2022-09-15T09:36:18.615Z,29.22
2022-09-15T09:38:48.274Z,29.19
2022-09-15T09:41:21.695Z,29.31
2022-09-15T09:43:53.233Z,29.44
2022-09-15T09:46:23.062Z,29.46
2022-09-15T09:49:35.621Z,29.45
2022-09-15T09:52:04.788Z,29.38
2022-09-15T09:54:33.990Z,29.39
2022-09-15T09:57:40.998Z,29.68
2022-09-15T10:00:40.864Z,29.92
2022-09-15T10:03:18.386Z,30.06
2022-09-15T10:06:00.048Z,30.15
2022-09-15T10:08:27.532Z,30.20
2022-09-15T10:11:00.569Z,30.26
2022-09-15T10:13:27.473Z,30.36
2022-09-15T10:15:57.990Z,30.52
2022-09-15T10:18:38.380Z,30.63
2022-09-15T10:21:08.599Z,30.66
2022-09-15T10:23:36.319Z,30.78
2022-09-15T10:26:15.159Z,30.80
2022-09-15T10:28:43.388Z,30.67
2022-09-15T10:31:26.728Z,30.74
2022-09-15T10:33:53.707Z,30.92
2022-09-15T10:36:29.865Z,30.95
2022-09-15T10:39:21.491Z,31.12
2022-09-15T10:42:10.137Z,31.19
2022-09-15T10:44:54.761Z,31.31
2022-09-15T10:47:40.676Z,31.41
2022-09-15T10:50:21.223Z,31.57
2022-09-15T10:53:20.457Z,31.46
2022-09-15T10:55:58.730Z,31.55
2022-09-15T10:58:48.963Z,31.61
2022-09-15T11:01:19.051Z,31.72
2022-09-15T11:03:51.974Z,31.80
2022-09-15T11:06:32.828Z,31.87
2022-09-15T11:09:23.644Z,31.86
2022-09-15T11:11:51.697Z,31.94
2022-09-15T11:14:44.733Z,31.86
2022-09-15T11:17:30.498Z,31.95
2022-09-15T11:20:25.436Z,31.99
2022-09-15T11:22:54.995Z,32.04
2022-09-15T11:25:25.790Z,32.16
2022-09-15T11:28:04.571Z,32.14
2022-09-15T11:30:59.333Z,32.07
2022-09-15T11:33:47.964Z,32.32
2022-09-15T11:36:21.369Z,32.44
2022-09-15T11:38:57.693Z,32.67
2022-09-15T11:41:34.905Z,32.73
2022-09-15T11:44:43.396Z,32.80
2022-09-15T11:47:31.817Z,32.91
2022-09-15T11:50:09.971Z,32.97
2022-09-15T11:53:00.862Z,32.89
2022-09-15T11:56:19.910Z,32.82
2022-09-15T11:59:12.411Z,32.98
2022-09-15T12:01:59.588Z,33.17
2022-09-15T12:04:32.060Z,33.27
2022-09-15T12:07:14.559Z,33.30
2022-09-15T12:09:44.116Z,33.30
2022-09-15T12:12:22.818Z,33.44
2022-09-15T12:14:52.946Z,33.51
2022-09-15T12:17:37.622Z,33.54
2022-09-15T12:20:14.617Z,33.54
2022-09-15T12:22:47.938Z,33.49
2022-09-15T12:25:27.510Z,33.44
2022-09-15T12:28:22.180Z,33.45
2022-09-15T12:31:09.964Z,33.42
2022-09-15T12:33:42.861Z,33.34
2022-09-15T12:36:45.795Z,33.44
2022-09-15T12:39:18.658Z,33.47
2022-09-15T12:42:10.235Z,33.42
2022-09-15T12:44:40.663Z,33.42
2022-09-15T12:47:20.883Z,33.32
2022-09-15T12:49:50.477Z,33.19
2022-09-15T12:52:20.532Z,33.14
2022-09-15T12:54:54.672Z,33.15
2022-09-15T12:57:32.027Z,33.09
2022-09-15T13:00:23.846Z,32.99
2022-09-15T13:02:51.574Z,32.95
2022-09-15T13:05:43.118Z,32.91
2022-09-15T13:08:34.587Z,32.91
2022-09-15T13:11:20.898Z,32.89
2022-09-15T13:13:50.926Z,32.86
2022-09-15T13:17:10.372Z,32.80
2022-09-15T13:19:44.380Z,32.79
2022-09-15T13:22:11.297Z,32.80
2022-09-15T13:24:40.917Z,32.82
2022-09-15T13:27:08.958Z,32.70
2022-09-15T13:29:48.337Z,32.75
2022-09-15T13:32:18.427Z,32.76
2022-09-15T13:35:06.071Z,32.77
2022-09-15T13:38:08.385Z,32.77
2022-09-15T14:27:29.789Z,32.57
2022-09-15T14:29:58.622Z,32.55
2022-09-15T14:32:28.990Z,32.60
2022-09-15T14:35:04.029Z,32.59
2022-09-15T14:37:34.833Z,32.62
2022-09-15T14:40:17.353Z,32.58
2022-09-15T14:42:44.694Z,32.62
2022-09-15T14:48:01.473Z,32.64
2022-09-15T14:50:33.219Z,32.54
2022-09-15T14:53:10.611Z,32.51
2022-09-15T14:55:55.841Z,32.54
2022-09-15T14:58:32.641Z,32.46
2022-09-15T15:01:30.559Z,32.46
2022-09-15T15:04:18.928Z,32.42
2022-09-15T15:07:08.215Z,32.37
2022-09-15T15:09:49.250Z,32.43
2022-09-15T15:12:35.697Z,32.45
2022-09-15T15:15:03.193Z,32.40
2022-09-15T15:17:49.815Z,32.32
2022-09-15T15:20:23.625Z,32.29
2022-09-15T15:23:25.399Z,32.29
2022-09-15T15:25:53.959Z,32.21
2022-09-15T15:28:35.905Z,32.23
2022-09-15T15:31:07.629Z,32.17
2022-09-15T15:33:34.726Z,32.06
2022-09-15T15:36:09.121Z,31.99
2022-09-15T15:38:48.304Z,31.97
2022-09-15T15:45:53.248Z,31.84
2022-09-15T15:49:11.357Z,31.58
2022-09-15T15:51:38.204Z,31.68
2022-09-15T15:54:05.702Z,31.41
2022-09-15T15:59:23.326Z,31.49
2022-09-15T16:01:53.563Z,31.41
2022-09-15T16:04:20.513Z,31.28
2022-09-15T16:06:47.861Z,31.09
2022-09-15T16:09:17.297Z,31.09
2022-09-15T16:11:44.276Z,31.02
2022-09-15T16:14:13.530Z,30.87
2022-09-15T16:16:40.995Z,30.79
2022-09-15T16:19:08.655Z,30.68
2022-09-15T16:21:39.794Z,30.55
2022-09-15T16:24:12.698Z,30.40
2022-09-15T16:26:40.507Z,30.28
2022-09-15T16:36:15.442Z,29.93
2022-09-15T16:38:43.057Z,29.73
2022-09-15T16:41:12.777Z,29.77
2022-09-15T16:43:39.685Z,29.46
2022-09-15T16:46:08.708Z,29.45
2022-09-15T16:48:35.639Z,29.29
2022-09-15T16:51:20.985Z,29.22
2022-09-15T16:53:52.030Z,28.96
2022-09-15T16:56:19.455Z,28.90
2022-09-15T16:58:46.376Z,28.80
2022-09-15T17:01:18.905Z,28.80
2022-09-15T17:03:46.733Z,28.80
2022-09-15T17:06:16.376Z,28.68
2022-09-15T17:08:44.011Z,28.64
2022-09-15T17:11:16.512Z,28.63
2022-09-15T17:13:44.872Z,28.28
2022-09-15T17:16:14.915Z,28.25
2022-09-15T17:18:44.108Z,28.21
2022-09-15T17:21:12.375Z,28.10
2022-09-15T17:23:42.650Z,28.11
2022-09-15T17:26:12.936Z,27.91
2022-09-15T17:28:40.897Z,27.82
2022-09-15T17:31:13.503Z,27.63
2022-09-15T17:33:40.751Z,27.60
2022-09-15T17:36:08.182Z,27.52
2022-09-15T17:38:35.279Z,27.40
2022-09-15T17:41:03.004Z,27.35
2022-09-15T17:43:32.013Z,27.45
2022-09-15T17:46:01.860Z,27.33
2022-09-15T17:48:28.871Z,27.25
2022-09-15T17:50:55.751Z,27.21
2022-09-15T17:53:26.858Z,27.11
2022-09-15T17:55:55.560Z,27.12
2022-09-15T17:58:23.986Z,27.05
2022-09-15T18:00:52.420Z,26.86
2022-09-15T18:03:22.293Z,26.87
2022-09-15T18:05:50.351Z,26.92
2022-09-15T18:08:18.545Z,26.85
2022-09-15T18:10:46.053Z,26.64
2022-09-15T18:13:15.648Z,26.64
2022-09-15T18:15:44.351Z,26.66
2022-09-15T18:18:20.782Z,26.86
2022-09-15T18:20:54.079Z,26.82
2022-09-15T18:23:23.518Z,26.83
2022-09-15T18:25:53.552Z,26.66
2022-09-15T18:28:20.846Z,26.53
2022-09-15T18:30:51.956Z,26.38
2022-09-15T18:33:26.846Z,26.44
2022-09-15T18:35:56.312Z,26.60
2022-09-15T18:38:23.988Z,26.56
2022-09-15T18:40:57.949Z,26.41
2022-09-15T18:43:30.200Z,26.63
2022-09-15T18:46:01.314Z,26.22
2022-09-15T18:48:29.263Z,26.11
2022-09-15T18:50:57.864Z,25.82
2022-09-15T18:53:26.097Z,25.82
2022-09-15T18:55:53.029Z,25.67
2022-09-15T18:58:22.421Z,25.74
2022-09-15T19:00:54.252Z,25.72
2022-09-15T19:03:22.222Z,25.82
2022-09-15T19:05:51.262Z,26.01
2022-09-15T19:08:19.946Z,26.06
2022-09-15T19:10:57.816Z,26.01
2022-09-15T19:13:25.189Z,25.85
2022-09-15T19:15:53.688Z,25.59
2022-09-15T19:18:24.562Z,25.77
2022-09-15T19:21:05.705Z,25.84
2022-09-15T19:23:32.864Z,25.74
2022-09-15T19:26:11.601Z,25.08
2022-09-15T19:28:39.466Z,24.78
2022-09-15T19:31:06.925Z,24.61
2022-09-15T19:33:34.855Z,24.44
2022-09-15T19:36:26.786Z,24.54
2022-09-15T19:38:56.460Z,24.51
2022-09-15T19:41:27.365Z,24.99
2022-09-15T19:46:40.752Z,25.33
2022-09-15T19:49:08.220Z,25.26
2022-09-15T19:51:35.251Z,25.32
2022-09-15T19:54:02.170Z,25.44
2022-09-15T19:56:30.123Z,25.23
2022-09-15T19:58:59.149Z,25.18
2022-09-15T20:01:29.778Z,25.10
2022-09-15T20:03:58.596Z,24.79
2022-09-15T20:06:28.962Z,24.97
2022-09-15T20:08:59.467Z,24.82
2022-09-15T20:11:35.949Z,24.75
2022-09-15T20:14:03.802Z,24.48
2022-09-15T20:16:34.099Z,24.20
2022-09-15T20:19:03.715Z,24.30
2022-09-15T20:24:20.092Z,24.31
2022-09-15T20:26:48.640Z,24.45
2022-09-15T20:29:17.469Z,24.12
2022-09-15T20:31:46.373Z,23.90
2022-09-15T20:34:20.550Z,23.80
2022-09-15T20:36:50.103Z,23.77
2022-09-15T20:39:19.579Z,23.86
2022-09-15T20:41:48.915Z,23.89
2022-09-15T20:44:25.505Z,23.80
2022-09-15T20:46:54.166Z,23.71
2022-09-15T20:49:23.279Z,23.95
2022-09-15T20:51:59.409Z,23.86
2022-09-15T20:54:26.480Z,23.78
2022-09-15T20:56:53.401Z,23.67
2022-09-15T20:59:20.602Z,23.69
2022-09-15T21:01:47.608Z,23.79
2022-09-15T21:04:14.840Z,23.74
2022-09-15T21:06:41.772Z,23.73
2022-09-15T21:09:08.730Z,23.88
2022-09-15T21:11:35.799Z,24.08
2022-09-15T21:14:03.281Z,24.13
2022-09-15T21:16:30.532Z,24.32
2022-09-15T21:18:58.536Z,24.45
2022-09-15T21:21:28.371Z,24.52
2022-09-15T21:23:58.685Z,24.45
2022-09-15T21:26:27.820Z,24.30
2022-09-15T21:28:56.449Z,24.27
2022-09-15T21:31:26.731Z,24.31
2022-09-15T21:33:54.772Z,24.39
2022-09-15T21:36:25.028Z,24.09
2022-09-15T21:38:54.763Z,23.91
2022-09-15T21:41:26.022Z,23.77
2022-09-15T21:43:55.599Z,23.53
2022-09-15T21:46:25.920Z,23.68
2022-09-15T21:48:53.420Z,23.57
2022-09-15T21:51:24.508Z,23.27
2022-09-15T21:53:56.306Z,23.15
2022-09-15T21:56:24.620Z,23.20
2022-09-15T21:58:51.775Z,23.32
2022-09-15T22:01:21.546Z,23.46
2022-09-15T22:03:51.533Z,23.22
2022-09-15T22:06:20.978Z,22.79
2022-09-15T22:08:48.043Z,22.46
2022-09-15T22:11:15.435Z,22.39
2022-09-15T22:13:44.136Z,22.53
2022-09-15T22:16:16.660Z,22.77
2022-09-15T22:18:44.015Z,22.85
2022-09-15T22:21:14.931Z,23.07
2022-09-15T22:23:43.200Z,23.08
2022-09-15T22:26:12.941Z,23.15
2022-09-15T22:28:40.218Z,23.18
2022-09-15T22:31:10.390Z,22.47
2022-09-15T22:33:39.570Z,22.47
2022-09-15T22:36:13.254Z,22.01
2022-09-15T22:38:40.175Z,21.77
2022-09-15T22:41:09.468Z,21.63
2022-09-15T22:43:38.346Z,21.78
2022-09-15T22:46:06.383Z,22.03
2022-09-15T22:48:33.576Z,22.04
2022-09-15T22:51:00.918Z,22.14
2022-09-15T22:53:27.959Z,21.90
2022-09-15T22:56:05.438Z,21.88
2022-09-15T22:58:36.371Z,22.10
2022-09-15T23:01:04.366Z,22.27
2022-09-15T23:03:31.721Z,22.33
2022-09-15T23:05:59.779Z,22.53
2022-09-15T23:08:26.805Z,22.62
2022-09-15T23:10:53.839Z,22.59
2022-09-15T23:13:20.683Z,22.50
2022-09-15T23:15:49.122Z,22.56
2022-09-15T23:18:17.840Z,22.22
2022-09-15T23:20:45.400Z,21.87
2022-09-15T23:23:12.308Z,21.62
2022-09-15T23:25:39.126Z,21.71
2022-09-15T23:28:05.954Z,21.90
2022-09-15T23:30:32.822Z,22.06
2022-09-15T23:32:59.670Z,22.22
2022-09-15T23:35:26.534Z,22.12
2022-09-15T23:37:53.379Z,21.70
2022-09-15T23:40:20.498Z,21.47
2022-09-15T23:42:49.863Z,21.49
2022-09-15T23:45:16.730Z,21.64
2022-09-15T23:47:43.598Z,21.81
2022-09-15T23:50:10.480Z,21.80
2022-09-15T23:52:37.529Z,21.72
2022-09-15T23:55:04.871Z,21.61
2022-09-15T23:57:31.768Z,21.33
2022-09-15T23:59:58.599Z,21.20
